Time;durP1;ratioP1;P1;durP2;ratioP2;P2;SDS_P1;SDS_P2;PMS_P1;PMS_P2;Temp;Humidity;BMP_temperature;BMP_pressure;BME280_temperature;BME280_humidity;BME280_pressure;Samples;Min_cycle;Max_cycle;Signal;HPM_P1;HPM_P2
2021/05/10 00:00:31;;;;;;;1.17;0.80;;;;;;;17.04;41.71;94544.72;4995193;28;20046;-80
2021/05/10 00:02:56;;;;;;;1.27;1.00;;;;;;;17.14;41.48;94551.41;5012054;28;20052;-79
2021/05/10 00:05:22;;;;;;;0.70;0.70;;;;;;;17.02;41.99;94549.69;4997358;28;20034;-79
2021/05/10 00:07:47;;;;;;;3.55;1.40;;;;;;;16.86;42.24;94535.63;5012356;28;20492;-81
2021/05/10 00:10:13;;;;;;;1.05;0.80;;;;;;;16.98;42.41;94550.78;4995486;28;20042;-80
2021/05/10 00:12:38;;;;;;;1.08;0.98;;;;;;;16.83;42.51;94533.63;4994858;28;20092;-80
2021/05/10 00:15:05;;;;;;;1.13;0.80;;;;;;;16.82;43.37;94538.22;4995002;28;20030;-81
2021/05/10 00:17:31;;;;;;;2.03;0.80;;;;;;;16.79;42.80;94532.81;4995366;28;20026;-80
2021/05/10 00:19:56;;;;;;;2.08;1.08;;;;;;;16.89;42.75;94542.97;5011261;28;20041;-80
2021/05/10 00:22:21;;;;;;;1.42;1.33;;;;;;;16.92;42.79;94557.56;5012272;28;20065;-81
2021/05/10 00:24:47;;;;;;;2.30;1.00;;;;;;;16.88;43.14;94557.50;5011817;28;20064;-80
2021/05/10 00:27:13;;;;;;;2.35;1.15;;;;;;;16.86;43.01;94539.06;5010973;28;20399;-79
2021/05/10 00:29:38;;;;;;;1.05;0.95;;;;;;;16.97;42.81;94552.69;5014053;28;20030;-80
2021/05/10 00:32:04;;;;;;;1.77;1.02;;;;;;;16.94;43.25;94552.63;5011942;28;20044;-80
2021/05/10 00:34:29;;;;;;;1.10;0.93;;;;;;;16.88;43.28;94550.22;5012055;28;20054;-82
2021/05/10 00:36:54;;;;;;;1.15;0.85;;;;;;;16.80;43.28;94545.09;5011870;28;20499;-80
2021/05/10 00:39:21;;;;;;;5.85;1.17;;;;;;;16.72;44.00;94536.13;5012075;28;20042;-80
2021/05/10 00:41:47;;;;;;;1.48;0.90;;;;;;;16.76;43.35;94536.97;5013706;28;20034;-80
2021/05/10 00:44:13;;;;;;;2.83;1.10;;;;;;;16.79;43.35;94551.63;5011891;28;20045;-80
2021/05/10 00:46:39;;;;;;;0.90;0.88;;;;;;;16.66;43.72;94528.72;5011091;28;20038;-80
2021/05/10 00:49:06;;;;;;;1.23;1.13;;;;;;;16.53;43.68;94520.03;4994428;28;20522;-81
2021/05/10 00:51:31;;;;;;;3.42;1.05;;;;;;;16.60;43.89;94547.03;4994374;28;20100;-79
2021/05/10 00:53:57;;;;;;;1.92;1.00;;;;;;;16.39;44.04;94525.94;5011905;28;20057;-80
2021/05/10 00:56:22;;;;;;;1.83;1.10;;;;;;;16.43;44.46;94544.78;5013880;28;20107;-80
2021/05/10 00:58:48;;;;;;;1.15;1.02;;;;;;;16.24;44.46;94521.44;5011415;28;20038;-80
2021/05/10 01:01:14;;;;;;;1.60;1.45;;;;;;;16.24;45.18;94543.69;5011606;28;20037;-80
2021/05/10 01:03:40;;;;;;;2.15;1.00;;;;;;;16.24;45.51;94554.41;5011525;28;20053;-80
2021/05/10 01:06:06;;;;;;;2.55;1.45;;;;;;;15.90;46.48;94523.03;4994057;28;20447;-81
2021/05/10 01:08:32;;;;;;;1.35;1.08;;;;;;;15.92;46.37;94535.00;5013386;28;20022;-81
2021/05/10 01:10:57;;;;;;;2.28;1.08;;;;;;;15.98;46.01;94555.03;5011771;28;20022;-80
2021/05/10 01:13:23;;;;;;;1.33;1.15;;;;;;;15.85;46.77;94542.88;5011121;28;20046;-80
2021/05/10 01:15:51;;;;;;;4.30;0.82;;;;;;;15.86;46.17;94541.75;5011134;28;20038;-81
2021/05/10 01:18:18;;;;;;;3.78;1.10;;;;;;;15.81;46.95;94536.66;5011295;28;20488;-81
2021/05/10 01:20:46;;;;;;;1.85;1.08;;;;;;;15.74;46.36;94534.59;5013260;28;20022;-80
2021/05/10 01:23:11;;;;;;;1.85;1.00;;;;;;;15.79;46.58;94531.66;5010999;28;20101;-81
2021/05/10 01:25:36;;;;;;;1.30;1.10;;;;;;;15.81;46.05;94528.59;5011228;28;20128;-80
2021/05/10 01:28:02;;;;;;;2.42;1.10;;;;;;;15.75;46.19;94508.56;5010924;28;20125;-81
2021/05/10 01:30:35;;;;;;;2.92;1.30;;;;;;;15.82;46.17;94525.59;5011016;28;20519;-80
2021/05/10 01:33:01;;;;;;;1.77;0.98;;;;;;;15.86;45.77;94520.28;4993132;28;20026;-81
2021/05/10 01:35:32;;;;;;;1.55;1.10;;;;;;;15.98;45.31;94519.41;5013006;28;20022;-79
2021/05/10 01:38:17;;;;;;;2.60;1.17;;;;;;;16.13;44.81;94536.56;5011054;28;20046;-80
2021/05/10 01:40:46;;;;;;;4.03;1.27;;;;;;;16.10;44.47;94530.75;5010807;28;20414;-79
2021/05/10 01:43:12;;;;;;;3.22;0.90;;;;;;;16.03;44.41;94519.13;5010899;28;20514;-79
2021/05/10 01:45:38;;;;;;;1.98;0.82;;;;;;;16.19;44.21;94525.19;5010957;28;20042;-78
2021/05/10 01:48:08;;;;;;;1.17;1.00;;;;;;;16.32;43.87;94531.94;5010664;28;20419;-80
2021/05/10 01:50:35;;;;;;;3.90;0.80;;;;;;;16.30;44.16;94522.69;5012816;28;20021;-79
2021/05/10 01:53:02;;;;;;;1.23;0.98;;;;;;;16.34;43.78;94535.06;4993256;28;20480;-79
2021/05/10 01:55:27;;;;;;;1.77;1.10;;;;;;;16.34;43.34;94529.69;5010690;28;20038;-78
2021/05/10 01:57:57;;;;;;;1.40;1.02;;;;;;;16.42;43.63;94538.63;5010509;28;20038;-79
2021/05/10 02:00:30;;;;;;;3.05;0.98;;;;;;;16.40;43.35;94530.16;5010433;28;20084;-78
2021/05/10 02:03:03;;;;;;;1.15;1.00;;;;;;;16.45;43.49;94524.50;5017026;23;20050;-77
2021/05/10 02:05:29;;;;;;;2.13;0.95;;;;;;;16.51;43.09;94536.50;4974151;28;20506;-78
2021/05/10 02:07:57;;;;;;;0.85;0.80;;;;;;;16.52;43.08;94530.00;4972645;28;20109;-77
2021/05/10 02:10:26;;;;;;;1.15;0.93;;;;;;;16.63;42.94;94540.94;4990137;28;20037;-78
2021/05/10 02:13:01;;;;;;;1.38;1.00;;;;;;;16.59;43.37;94546.25;4989900;28;20045;-77
2021/05/10 02:15:37;;;;;;;2.05;1.15;;;;;;;16.58;42.87;94536.66;4990125;28;20041;-78
2021/05/10 02:18:03;;;;;;;1.45;1.08;;;;;;;16.67;42.63;94535.63;4989689;28;20038;-75
2021/05/10 02:20:31;;;;;;;1.88;0.80;;;;;;;16.69;42.76;94536.06;4991012;28;20026;-78
2021/05/10 02:22:58;;;;;;;3.58;1.08;;;;;;;16.61;42.60;94527.09;4989069;28;20034;-76
2021/05/10 02:25:29;;;;;;;2.25;1.05;;;;;;;16.70;42.62;94538.38;4972484;28;20043;-77
2021/05/10 02:27:55;;;;;;;1.17;0.80;;;;;;;16.74;42.30;94538.47;4989667;28;20061;-78
2021/05/10 02:30:23;;;;;;;5.22;1.23;;;;;;;16.74;42.76;94541.16;4989932;28;20488;-79
2021/05/10 02:32:49;;;;;;;1.27;1.15;;;;;;;16.66;42.09;94526.78;4991414;28;20110;-78
2021/05/10 02:35:15;;;;;;;2.10;1.10;;;;;;;16.69;41.90;94519.94;4973175;28;20500;-78
2021/05/10 02:37:41;;;;;;;2.08;1.20;;;;;;;16.83;41.59;94537.09;4972311;28;20038;-78
2021/05/10 02:40:08;;;;;;;1.88;1.02;;;;;;;16.86;41.88;94536.38;4989203;28;20043;-77
2021/05/10 02:42:33;;;;;;;1.88;1.00;;;;;;;16.90;41.74;94528.41;4989489;28;20596;-77
2021/05/10 02:44:59;;;;;;;2.17;0.95;;;;;;;16.93;41.46;94532.25;4989638;28;20026;-76
2021/05/10 02:47:25;;;;;;;1.25;0.85;;;;;;;16.87;41.31;94519.13;4991147;28;20080;-77
2021/05/10 02:49:52;;;;;;;2.42;0.80;;;;;;;17.04;41.32;94544.72;4989746;28;20112;-79
2021/05/10 02:52:18;;;;;;;2.00;1.00;;;;;;;17.05;41.19;94532.09;4989330;28;20039;-77
2021/05/10 02:54:43;;;;;;;1.55;0.93;;;;;;;16.94;40.74;94525.75;4972356;28;20046;-77
2021/05/10 02:57:08;;;;;;;1.02;0.88;;;;;;;17.07;40.77;94522.53;4990023;28;20855;-78
2021/05/10 02:59:34;;;;;;;0.90;0.80;;;;;;;17.15;40.59;94518.06;4974433;28;20575;-78
2021/05/10 03:01:59;;;;;;;1.00;0.90;;;;;;;17.04;40.42;94490.22;4972164;28;20378;-77
2021/05/10 03:04:24;;;;;;;2.00;1.27;;;;;;;17.18;40.36;94505.78;4972000;28;20090;-77
2021/05/10 03:06:50;;;;;;;0.98;0.82;;;;;;;17.13;40.03;94502.28;4989397;28;20118;-76
2021/05/10 03:09:15;;;;;;;1.85;1.40;;;;;;;17.17;40.13;94515.78;4991095;28;20030;-76
2021/05/10 03:11:40;;;;;;;1.88;1.08;;;;;;;17.26;39.69;94512.84;4994730;28;20532;-78
2021/05/10 03:14:06;;;;;;;1.80;1.00;;;;;;;17.30;39.83;94522.50;4993103;28;20061;-78
2021/05/10 03:16:31;;;;;;;2.10;0.88;;;;;;;17.32;39.53;94503.31;4992682;28;20046;-78
2021/05/10 03:18:56;;;;;;;2.47;1.42;;;;;;;17.39;39.23;94512.25;4992744;28;20125;-79
2021/05/10 03:21:22;;;;;;;1.40;0.93;;;;;;;17.49;38.82;94507.41;4992537;28;20500;-78
2021/05/10 03:23:47;;;;;;;2.17;0.98;;;;;;;17.52;38.53;94512.84;4994860;28;20049;-78
2021/05/10 03:26:13;;;;;;;1.45;1.00;;;;;;;17.52;38.63;94507.47;4992972;28;20480;-78
2021/05/10 03:28:38;;;;;;;2.97;1.00;;;;;;;17.58;38.56;94522.13;4992553;28;20034;-77
2021/05/10 03:31:03;;;;;;;1.20;1.05;;;;;;;17.43;38.34;94498.88;4992770;28;20043;-77
2021/05/10 03:33:29;;;;;;;1.90;0.85;;;;;;;17.36;38.35;94522.97;4992343;28;20034;-78
2021/05/10 03:35:55;;;;;;;1.73;0.70;;;;;;;17.57;38.51;94522.50;4992552;28;20080;-76
2021/05/10 03:38:20;;;;;;;2.17;0.90;;;;;;;17.53;38.44;94533.19;4994337;28;20022;-77
2021/05/10 03:40:46;;;;;;;0.90;0.90;;;;;;;17.48;38.27;94536.19;4992679;28;20763;-77
2021/05/10 03:43:11;;;;;;;1.73;0.98;;;;;;;17.56;38.29;94539.78;4992270;28;20443;-79
2021/05/10 03:45:36;;;;;;;1.13;0.90;;;;;;;17.53;38.25;94527.06;4992415;28;20039;-79
2021/05/10 03:48:02;;;;;;;2.20;0.95;;;;;;;17.48;38.40;94524.66;4992278;28;20045;-79
2021/05/10 03:50:27;;;;;;;1.77;0.95;;;;;;;17.53;38.46;94529.75;4994427;28;20022;-77
2021/05/10 03:52:53;;;;;;;1.67;1.27;;;;;;;17.57;38.42;94528.66;4992254;28;20050;-80
2021/05/10 03:55:23;;;;;;;1.63;1.02;;;;;;;17.59;38.27;94525.59;4992142;28;20041;-78
2021/05/10 03:57:48;;;;;;;1.25;0.88;;;;;;;17.71;37.98;94533.47;4992180;28;20043;-77
2021/05/10 04:00:16;;;;;;;0.88;0.70;;;;;;;17.76;38.31;94530.50;4974967;28;20118;-77
2021/05/10 04:02:43;;;;;;;2.42;0.80;;;;;;;17.76;38.22;94524.31;4993538;28;20026;-76
2021/05/10 04:15:57;;;;;;;1.48;0.77;;;;;;;18.17;37.33;94534.09;4992032;28;20073;-78
2021/05/10 04:18:23;;;;;;;2.63;0.93;;;;;;;18.44;36.69;94550.16;4991720;28;20070;-78
2021/05/10 04:20:50;;;;;;;1.83;1.00;;;;;;;18.72;36.62;94543.53;4993370;28;20058;-77
2021/05/10 04:23:17;;;;;;;2.35;1.27;;;;;;;18.81;36.45;94538.63;4991896;28;20043;-78
2021/05/10 04:25:52;;;;;;;1.80;0.90;;;;;;;18.88;36.07;94525.97;4991452;28;20062;-77
2021/05/10 04:28:19;;;;;;;6.07;1.30;;;;;;;19.01;36.09;94531.88;4991540;28;20572;-78
2021/05/10 04:30:46;;;;;;;5.15;1.35;;;;;;;19.06;35.81;94522.69;4991579;28;20036;-78
2021/05/10 04:33:12;;;;;;;1.52;1.25;;;;;;;19.11;35.58;94525.81;4991323;28;20039;-77
2021/05/10 04:35:38;;;;;;;1.67;1.30;;;;;;;18.88;35.91;94506.34;4993544;28;20022;-77
2021/05/10 04:38:08;;;;;;;0.88;0.75;;;;;;;19.22;35.67;94523.97;4991323;28;20035;-78
2021/05/10 04:40:35;;;;;;;2.95;1.10;;;;;;;19.37;35.55;94518.66;4991183;28;20031;-77
2021/05/10 04:43:01;;;;;;;4.05;1.55;;;;;;;19.46;35.39;94522.59;4973667;28;20046;-78
2021/05/10 04:45:27;;;;;;;2.17;1.15;;;;;;;19.55;35.26;94519.59;4973863;28;20073;-77
2021/05/10 04:47:52;;;;;;;3.20;1.13;;;;;;;19.64;35.34;94520.03;4991066;28;20059;-78
2021/05/10 04:50:18;;;;;;;1.50;1.30;;;;;;;20.03;34.88;94546.47;4975429;28;20026;-78
2021/05/10 04:52:44;;;;;;;4.90;1.38;;;;;;;19.90;34.57;94502.81;4990992;28;20098;-78
2021/05/10 04:55:11;;;;;;;0.90;0.90;;;;;;;20.17;34.50;94546.53;4991286;28;20398;-78
2021/05/10 04:57:37;;;;;;;3.65;1.20;;;;;;;20.16;34.68;94549.59;4973222;28;20030;-78
2021/05/10 05:00:08;;;;;;;3.05;1.30;;;;;;;20.01;34.43;94532.56;4990957;28;20084;-77
2021/05/10 05:02:33;;;;;;;2.35;1.20;;;;;;;20.12;34.49;94556.94;4992437;28;20035;-78
2021/05/10 05:04:59;;;;;;;2.35;1.25;;;;;;;20.19;34.84;94554.25;4990835;28;20034;-78
2021/05/10 05:07:24;;;;;;;2.00;1.40;;;;;;;20.25;34.72;94552.72;4973323;28;20044;-77
2021/05/10 05:09:50;;;;;;;2.88;1.27;;;;;;;20.36;34.43;94556.25;4990735;28;20034;-77
2021/05/10 05:12:15;;;;;;;4.00;1.23;;;;;;;20.44;34.28;94571.34;4990537;28;20045;-80
2021/05/10 05:14:40;;;;;;;3.42;1.27;;;;;;;20.49;34.68;94572.94;4992877;28;20029;-78
2021/05/10 05:17:06;;;;;;;2.83;1.50;;;;;;;20.24;34.64;94530.34;4954365;28;20038;-77
2021/05/10 05:19:31;;;;;;;3.47;1.10;;;;;;;20.37;34.35;94565.13;4970938;28;20106;-77
2021/05/10 05:21:57;;;;;;;3.50;1.50;;;;;;;20.44;34.52;94581.38;4970617;28;20101;-77
2021/05/10 05:24:22;;;;;;;4.97;1.45;;;;;;;20.41;34.64;94574.00;4975299;28;20128;-77
2021/05/10 05:26:48;;;;;;;2.15;1.05;;;;;;;20.45;34.61;94577.50;4992049;28;20031;-75
2021/05/10 05:29:14;;;;;;;3.65;1.17;;;;;;;20.47;34.41;94581.41;4990372;28;20044;-78
2021/05/10 05:31:40;;;;;;;2.03;1.02;;;;;;;20.43;34.42;94590.63;4989090;28;20062;-75
2021/05/10 05:34:05;;;;;;;2.53;1.02;;;;;;;20.53;34.38;94599.97;4990019;28;20473;-78
2021/05/10 05:36:31;;;;;;;3.33;1.23;;;;;;;20.60;34.76;94584.53;4972638;28;20034;-78
2021/05/10 05:38:56;;;;;;;4.72;1.10;;;;;;;20.74;34.45;94589.22;4972205;28;20105;-81
2021/05/10 05:41:21;;;;;;;2.97;1.10;;;;;;;20.81;34.61;94588.47;4991938;28;20053;-70
2021/05/10 05:43:47;;;;;;;2.80;1.17;;;;;;;20.84;34.51;94587.69;4990130;28;20538;-70
2021/05/10 05:46:20;;;;;;;2.05;1.00;;;;;;;20.99;34.87;94592.00;4973548;28;20053;-70
2021/05/10 05:48:45;;;;;;;3.78;1.10;;;;;;;21.03;34.19;94590.03;4987295;28;20074;-77
2021/05/10 05:51:11;;;;;;;2.30;1.30;;;;;;;21.21;33.79;94596.25;4987744;28;20066;-79
2021/05/10 05:53:37;;;;;;;3.70;1.08;;;;;;;21.31;35.52;94600.16;4991523;28;20100;-67
2021/05/10 05:56:03;;;;;;;2.33;1.73;;;;;;;21.50;35.03;94607.13;4988651;28;20181;-68
2021/05/10 05:58:29;;;;;;;2.25;1.10;;;;;;;21.77;34.48;94604.81;4988447;28;20125;-68
2021/05/10 06:00:54;;;;;;;5.07;1.45;;;;;;;21.74;37.24;94608.28;4988168;28;20385;-72
2021/05/10 06:03:20;;;;;;;2.85;1.08;;;;;;;21.75;34.05;94607.09;4987654;28;20050;-67
2021/05/10 06:05:46;;;;;;;1.95;1.30;;;;;;;21.91;34.23;94604.03;4973313;28;20041;-67
2021/05/10 06:08:14;;;;;;;5.22;1.20;;;;;;;22.07;34.48;94612.50;4988688;28;20124;-67
2021/05/10 06:10:39;;;;;;;2.58;1.50;;;;;;;22.11;34.21;94607.88;4988976;28;20035;-68
2021/05/10 06:13:04;;;;;;;3.85;1.40;;;;;;;22.37;34.11;94603.94;4988749;28;20056;-68
2021/05/10 06:15:30;;;;;;;5.47;1.77;;;;;;;22.63;33.99;94610.03;4971336;28;20050;-68
2021/05/10 06:17:55;;;;;;;3.90;1.40;;;;;;;22.77;32.98;94608.00;4988714;28;20488;-70
2021/05/10 06:20:22;;;;;;;2.38;1.23;;;;;;;22.84;33.02;94618.84;4990843;28;20137;-69
2021/05/10 06:22:48;;;;;;;4.32;1.10;;;;;;;23.03;33.19;94617.63;4988370;28;20177;-72
2021/05/10 06:25:14;;;;;;;3.92;1.30;;;;;;;23.08;32.22;94611.78;4989093;28;20137;-75
2021/05/10 06:27:40;;;;;;;1.77;1.40;;;;;;;23.17;31.90;94611.31;4989055;28;20060;-69
2021/05/10 06:30:08;;;;;;;2.35;1.00;;;;;;;23.25;32.13;94606.63;4988985;28;20469;-71
2021/05/10 06:32:34;;;;;;;2.28;0.93;;;;;;;23.29;31.80;94597.28;4972438;28;20100;-70
2021/05/10 06:34:59;;;;;;;2.80;1.13;;;;;;;23.17;31.97;94605.88;4989004;28;20050;-71
2021/05/10 06:37:28;;;;;;;4.72;1.05;;;;;;;23.35;31.87;94598.41;4988649;28;20485;-69
2021/05/10 06:39:54;;;;;;;5.50;1.35;;;;;;;23.53;31.77;94609.13;4988823;28;20042;-70
2021/05/10 06:42:20;;;;;;;1.10;0.80;;;;;;;23.72;31.72;94607.06;4988370;28;20050;-68
2021/05/10 06:44:45;;;;;;;2.80;1.17;;;;;;;23.94;31.64;94610.38;4993271;28;20023;-73
2021/05/10 06:47:10;;;;;;;2.78;1.00;;;;;;;24.16;30.45;94619.88;4975089;28;20126;-75
2021/05/10 06:49:36;;;;;;;1.17;0.80;;;;;;;24.45;30.72;94627.75;4992391;28;20696;-71
2021/05/10 06:52:02;;;;;;;8.45;1.50;;;;;;;24.78;30.37;94628.91;4991926;28;20050;-73
2021/05/10 06:54:27;;;;;;;3.30;1.15;;;;;;;25.08;29.64;94622.72;4992186;28;20134;-69
2021/05/10 06:56:52;;;;;;;2.63;1.20;;;;;;;25.35;29.46;94625.47;4991913;28;20396;-70
2021/05/10 06:59:19;;;;;;;3.47;1.40;;;;;;;25.62;29.36;94628.94;4976693;28;20026;-74
2021/05/10 07:01:44;;;;;;;2.90;1.08;;;;;;;25.78;28.61;94625.59;4991940;28;20050;-69
2021/05/10 07:04:09;;;;;;;2.40;1.02;;;;;;;26.08;28.07;94637.56;4992170;28;20034;-73
2021/05/10 07:06:35;;;;;;;2.60;0.95;;;;;;;26.32;28.27;94644.53;4974389;28;20444;-74
2021/05/10 07:09:00;;;;;;;2.97;1.40;;;;;;;26.53;27.41;94650.81;4991944;28;20101;-73
2021/05/10 07:11:26;;;;;;;4.22;1.20;;;;;;;26.54;27.33;94639.47;4993875;28;20041;-73
2021/05/10 07:13:51;;;;;;;2.83;1.13;;;;;;;26.32;27.22;94636.34;4974514;28;20409;-73
2021/05/10 07:16:17;;;;;;;1.45;0.85;;;;;;;26.18;27.13;94634.63;4974459;28;20100;-74
2021/05/10 07:18:42;;;;;;;1.83;0.90;;;;;;;26.04;27.51;94642.28;4974150;28;20607;-72
2021/05/10 07:21:07;;;;;;;2.13;1.20;;;;;;;25.96;27.29;94638.94;4991858;28;20082;-69
2021/05/10 07:23:35;;;;;;;1.77;1.10;;;;;;;25.65;28.20;94658.06;4993600;28;20488;-69
2021/05/10 07:26:00;;;;;;;3.03;1.10;;;;;;;25.50;28.42;94653.25;4991698;28;20088;-71
2021/05/10 07:28:26;;;;;;;3.55;1.40;;;;;;;25.19;28.10;94661.47;4991554;28;20062;-71
2021/05/10 07:30:51;;;;;;;7.75;1.10;;;;;;;25.17;28.77;94657.59;4992154;28;20038;-75
2021/05/10 07:33:16;;;;;;;3.67;1.27;;;;;;;25.01;29.25;94666.31;4991588;28;20480;-70
2021/05/10 07:35:42;;;;;;;4.72;1.48;;;;;;;25.07;29.38;94659.28;4993570;28;20032;-69
2021/05/10 07:38:07;;;;;;;3.63;1.30;;;;;;;25.12;29.99;94648.69;4991517;28;20400;-77
2021/05/10 07:40:33;;;;;;;4.20;1.17;;;;;;;24.79;29.42;94644.06;4974332;28;20069;-78
2021/05/10 07:43:00;;;;;;;1.75;1.02;;;;;;;25.07;29.70;94640.22;4991139;28;20042;-68
2021/05/10 07:45:26;;;;;;;1.58;1.13;;;;;;;24.96;29.53;94645.00;4991461;28;20397;-68
2021/05/10 07:47:53;;;;;;;3.80;1.10;;;;;;;25.04;28.94;94630.16;4973718;28;20026;-72
2021/05/10 07:50:23;;;;;;;2.60;1.10;;;;;;;25.12;29.28;94634.31;4993247;28;20019;-70
2021/05/10 07:52:49;;;;;;;2.65;1.10;;;;;;;25.15;29.70;94628.84;4991104;28;20038;-70
2021/05/10 07:55:15;;;;;;;3.90;1.10;;;;;;;25.20;29.72;94627.63;4991119;28;20074;-70
2021/05/10 07:57:40;;;;;;;2.40;1.17;;;;;;;25.28;29.63;94622.81;4990949;28;20046;-71
2021/05/10 08:00:12;;;;;;;3.85;1.20;;;;;;;25.26;29.51;94620.53;4991174;28;20023;-71
2021/05/10 08:02:38;;;;;;;;;;;;;;;25.18;28.36;94619.06;4993186;28;20093;-70
2021/05/10 08:05:04;;;;;;;2.70;0.85;;;;;;;25.38;28.46;94617.22;4990859;28;20360;-71
2021/05/10 08:07:29;;;;;;;4.50;1.15;;;;;;;25.45;28.76;94621.81;4990515;28;20180;-69
2021/05/10 08:09:54;;;;;;;1.70;0.90;;;;;;;25.45;28.76;94621.03;4990968;28;20042;-71
2021/05/10 08:12:20;;;;;;;3.72;1.25;;;;;;;25.48;27.90;94612.78;4990492;28;20046;-69
2021/05/10 08:14:46;;;;;;;4.30;1.20;;;;;;;25.38;27.36;94609.06;4992507;28;20084;-70
2021/05/10 08:17:11;;;;;;;4.55;1.30;;;;;;;25.50;27.94;94605.00;4990309;28;20074;-69
2021/05/10 08:19:37;;;;;;;7.75;1.90;;;;;;;25.75;27.77;94598.44;4973348;28;20104;-70
2021/05/10 08:22:04;;;;;;;3.30;1.50;;;;;;;25.71;27.96;94598.44;4990252;28;20086;-67
2021/05/10 08:24:30;;;;;;;3.13;1.15;;;;;;;25.74;27.29;94591.38;4973134;28;20053;-69
2021/05/10 08:26:56;;;;;;;2.88;1.27;;;;;;;25.97;27.61;94577.03;4990063;28;20117;-71
2021/05/10 08:29:21;;;;;;;5.60;1.30;;;;;;;26.00;26.61;94576.19;4992322;28;20158;-70
2021/05/10 08:31:48;;;;;;;4.55;1.13;;;;;;;26.11;26.40;94569.38;4972477;28;20090;-71
2021/05/10 08:34:14;;;;;;;2.55;0.80;;;;;;;26.40;26.79;94596.84;4990340;28;20492;-69
2021/05/10 08:36:39;;;;;;;4.25;0.93;;;;;;;26.50;26.40;94602.53;4972830;28;20116;-70
2021/05/10 08:39:08;;;;;;;7.43;1.30;;;;;;;26.54;26.46;94601.28;4972493;28;20022;-69
2021/05/10 08:41:38;;;;;;;1.88;0.93;;;;;;;26.58;26.11;94598.50;4991796;28;20046;-69
2021/05/10 08:44:08;;;;;;;2.60;1.10;;;;;;;26.44;25.86;94611.22;4990157;28;20505;-69
2021/05/10 08:46:35;;;;;;;4.07;1.20;;;;;;;26.65;26.10;94615.47;4990157;28;20045;-69
2021/05/10 08:49:02;;;;;;;4.30;1.08;;;;;;;26.78;25.62;94595.75;4989830;28;20041;-69
2021/05/10 08:51:30;;;;;;;1.70;0.80;;;;;;;26.78;25.18;94591.06;4972152;28;20475;-71
2021/05/10 08:53:56;;;;;;;2.45;1.13;;;;;;;26.83;25.95;94587.84;4989996;28;20056;-70
2021/05/10 08:56:22;;;;;;;1.92;0.88;;;;;;;26.67;26.05;94552.34;4991958;28;20053;-68
2021/05/10 08:58:48;;;;;;;2.45;1.08;;;;;;;26.94;26.21;94582.91;4989700;28;20141;-69
2021/05/10 09:01:15;;;;;;;2.47;1.00;;;;;;;26.97;25.94;94581.28;4989390;28;20554;-69
2021/05/10 09:03:44;;;;;;;3.08;1.10;;;;;;;27.12;25.85;94592.69;4989692;28;20042;-71
2021/05/10 09:06:12;;;;;;;2.13;1.00;;;;;;;27.04;25.10;94566.75;4971531;28;20030;-70
2021/05/10 09:08:47;;;;;;;2.70;0.90;;;;;;;27.10;25.55;94570.53;4991452;28;20543;-70
2021/05/10 09:11:13;;;;;;;2.75;0.90;;;;;;;27.16;24.40;94566.09;4989323;28;20039;-69
2021/05/10 09:13:44;;;;;;;1.80;1.00;;;;;;;27.38;25.13;94572.63;4972013;28;20405;-69
2021/05/10 09:16:11;;;;;;;2.35;1.20;;;;;;;27.36;24.95;94558.59;4988710;28;20069;-70
2021/05/10 09:18:37;;;;;;;4.18;1.67;;;;;;;27.47;24.37;94550.91;4972090;28;20082;-70
2021/05/10 09:21:10;;;;;;;2.42;1.33;;;;;;;27.57;24.59;94553.81;4989337;28;20388;-70
2021/05/10 09:23:36;;;;;;;4.55;1.60;;;;;;;27.54;24.60;94546.47;4973990;28;20121;-68
2021/05/10 09:26:02;;;;;;;2.63;1.13;;;;;;;27.67;23.98;94536.41;4989669;28;20142;-70
2021/05/10 09:28:36;;;;;;;2.08;1.40;;;;;;;27.70;26.66;94533.63;4989242;28;20121;-65
2021/05/10 09:31:06;;;;;;;2.20;1.52;;;;;;;27.50;27.33;94541.13;4989824;28;20486;-79
2021/05/10 09:33:32;;;;;;;3.55;1.00;;;;;;;27.27;27.58;94550.22;4989434;28;20559;-77
2021/05/10 09:36:04;;;;;;;2.28;1.13;;;;;;;27.03;27.88;94546.09;4989927;28;20480;-76
2021/05/10 09:38:30;;;;;;;2.10;0.93;;;;;;;26.81;27.57;94546.56;4991287;28;20074;-77
2021/05/10 09:41:09;;;;;;;4.63;1.40;;;;;;;26.61;27.94;94540.34;4990271;28;20038;-73
2021/05/10 09:43:37;;;;;;;2.75;1.00;;;;;;;26.68;28.12;94560.09;4989517;28;20500;-73
2021/05/10 09:46:07;;;;;;;1.88;1.02;;;;;;;26.65;27.77;94565.59;4989107;28;20043;-68
2021/05/10 09:48:38;;;;;;;2.25;1.30;;;;;;;26.65;26.18;94565.59;4989116;28;20038;-74
2021/05/10 09:51:08;;;;;;;1.83;1.00;;;;;;;26.72;25.79;94570.13;4988942;28;20432;-74
2021/05/10 09:53:54;;;;;;;2.72;1.17;;;;;;;26.92;25.22;94563.47;4973639;28;20069;-70
2021/05/10 09:56:32;;;;;;;3.20;0.90;;;;;;;27.27;25.66;94572.06;4990558;28;20046;-77
2021/05/10 09:59:03;;;;;;;4.65;1.13;;;;;;;27.37;24.52;94565.59;4989615;28;20397;-76
2021/05/10 10:01:48;;;;;;;4.63;1.20;;;;;;;27.56;24.54;94561.25;4989627;28;20181;-78
2021/05/10 10:04:15;;;;;;;3.08;1.02;;;;;;;27.60;23.45;94553.75;4989528;28;20057;-82
2021/05/10 10:06:41;;;;;;;4.03;1.10;;;;;;;27.69;23.51;94534.00;4988874;28;20691;-76
2021/05/10 10:09:07;;;;;;;2.53;1.00;;;;;;;27.72;22.72;94544.09;4972094;28;20030;-78
2021/05/10 10:11:34;;;;;;;3.05;0.82;;;;;;;27.90;22.66;94551.88;4991340;28;20037;-76
2021/05/10 10:14:00;;;;;;;3.58;1.17;;;;;;;27.88;22.82;94533.16;4970400;28;20042;-79
2021/05/10 10:16:28;;;;;;;2.05;0.98;;;;;;;28.27;22.97;94555.97;4989506;28;20039;-77
2021/05/10 10:18:58;;;;;;;3.95;1.17;;;;;;;28.34;22.65;94558.50;4992106;28;20042;-76
2021/05/10 10:21:26;;;;;;;3.00;0.98;;;;;;;28.60;22.29;94553.88;4975498;28;20416;-77
2021/05/10 10:23:59;;;;;;;1.80;1.00;;;;;;;28.77;21.68;94554.59;4992635;28;20465;-76
2021/05/10 10:26:26;;;;;;;1.80;1.10;;;;;;;28.67;21.86;94537.28;4976767;28;20107;-76
2021/05/10 10:28:52;;;;;;;2.88;1.10;;;;;;;29.13;21.16;94543.34;4992877;28;20190;-82
2021/05/10 10:31:23;;;;;;;1.92;1.10;;;;;;;29.43;20.87;94542.03;4993158;28;20034;-69
2021/05/10 10:33:58;;;;;;;1.60;0.98;;;;;;;29.62;19.92;94531.28;4976149;28;20039;-76
2021/05/10 10:36:27;;;;;;;1.65;1.10;;;;;;;29.83;20.69;94541.50;4993342;28;20050;-79
2021/05/10 10:39:11;;;;;;;5.18;1.00;;;;;;;30.06;19.74;94539.59;4992363;28;20061;-81
2021/05/10 10:42:08;;;;;;;2.13;0.93;;;;;;;30.28;19.72;94538.41;4977389;28;20427;-78
2021/05/10 10:44:53;;;;;;;1.83;0.85;;;;;;;30.47;19.93;94555.78;4994790;28;20034;-74
2021/05/10 10:47:36;;;;;;;3.22;1.13;;;;;;;30.46;19.44;94559.00;4993837;28;20038;-78
2021/05/10 10:50:04;;;;;;;2.88;1.00;;;;;;;30.70;19.64;94567.53;4986438;28;20404;-80
2021/05/10 10:52:30;;;;;;;2.72;1.20;;;;;;;30.53;17.93;94564.22;4992407;28;20046;-79
2021/05/10 10:55:18;;;;;;;2.78;0.95;;;;;;;30.31;19.35;94564.22;4993946;28;20039;-79
2021/05/10 10:57:44;;;;;;;4.47;1.33;;;;;;;30.29;19.55;94572.88;4993058;28;20137;-79
2021/05/10 11:00:19;;;;;;;2.38;1.10;;;;;;;29.94;19.53;94555.66;4992675;28;20572;-79
2021/05/10 11:02:51;;;;;;;2.13;1.08;;;;;;;30.22;20.25;94566.88;4994606;28;20054;-78
2021/05/10 11:05:24;;;;;;;3.63;0.85;;;;;;;30.04;20.31;94542.75;4993445;28;20113;-78
2021/05/10 11:08:09;;;;;;;3.35;1.10;;;;;;;30.13;19.78;94553.84;4991903;28;20034;-79
2021/05/10 11:10:52;;;;;;;1.77;0.80;;;;;;;29.89;19.38;94531.53;4973963;28;20046;-78
2021/05/10 11:13:26;;;;;;;3.40;0.85;;;;;;;30.08;19.72;94554.38;4992266;28;20054;-78
2021/05/10 11:15:53;;;;;;;2.20;0.80;;;;;;;29.43;18.99;94553.00;4992115;28;20495;-76
2021/05/10 11:18:48;;;;;;;2.20;0.80;;;;;;;29.74;18.34;94535.97;4974486;28;20050;-78
2021/05/10 11:21:22;;;;;;;3.17;0.98;;;;;;;29.88;18.22;94543.69;4992063;28;20046;-77
2021/05/10 11:24:01;;;;;;;4.72;0.98;;;;;;;30.36;19.04;94541.69;4994799;28;20022;-83
2021/05/10 11:26:50;;;;;;;2.28;0.80;;;;;;;30.77;19.33;94554.34;4975030;28;20046;-74
2021/05/10 11:29:29;;;;;;;3.35;1.00;;;;;;;31.16;17.51;94546.56;4972357;28;20065;-78
2021/05/10 11:32:09;;;;;;;2.40;1.00;;;;;;;31.48;17.73;94545.34;4991806;28;20053;-77
2021/05/10 11:34:39;;;;;;;4.87;1.23;;;;;;;31.75;17.94;94539.13;4992116;28;20066;-77
2021/05/10 11:37:07;;;;;;;2.55;1.10;;;;;;;31.60;17.97;94540.94;4991699;28;20042;-78
2021/05/10 11:39:37;;;;;;;4.65;1.27;;;;;;;31.66;18.35;94544.63;4991738;28;20101;-76
2021/05/10 11:42:10;;;;;;;3.10;1.00;;;;;;;31.73;17.84;94538.06;4974390;28;20133;-78
2021/05/10 11:44:41;;;;;;;2.50;0.80;;;;;;;31.54;17.62;94524.28;4994730;28;20106;-78
2021/05/10 11:47:11;;;;;;;2.88;1.10;;;;;;;31.67;17.52;94553.63;4991956;28;20042;-76